createdAt,value
2019-03-21T00:03:56.492Z,12.15
2019-03-21T00:08:59.279Z,12.06
2019-03-21T00:14:08.514Z,11.97
2019-03-21T00:19:19.106Z,11.94
2019-03-21T00:24:26.287Z,11.93
2019-03-21T00:29:28.789Z,11.81
2019-03-21T00:34:31.400Z,11.71
2019-03-21T00:39:34.043Z,11.73
2019-03-21T00:44:36.911Z,11.78
2019-03-21T00:49:39.505Z,11.84
2019-03-21T00:54:42.362Z,11.90
2019-03-21T00:59:44.948Z,11.87
2019-03-21T01:04:47.612Z,11.88
2019-03-21T01:09:54.448Z,11.87
2019-03-21T01:15:05.636Z,11.92
2019-03-21T01:20:12.783Z,11.87
2019-03-21T01:25:30.223Z,11.91
2019-03-21T01:30:37.487Z,11.79
2019-03-21T01:35:46.673Z,11.84
2019-03-21T01:40:54.983Z,11.76
2019-03-21T01:45:57.605Z,11.91
2019-03-21T01:51:00.202Z,11.88
2019-03-21T01:56:02.932Z,11.89
2019-03-21T02:01:05.613Z,11.74
2019-03-21T02:06:08.223Z,11.76
2019-03-21T02:11:10.872Z,11.85
2019-03-21T02:16:13.670Z,11.89
2019-03-21T02:21:16.285Z,11.88
2019-03-21T02:26:18.962Z,11.84
2019-03-21T02:31:21.727Z,11.82
2019-03-21T02:36:27.119Z,11.78
2019-03-21T02:41:29.747Z,11.80
2019-03-21T02:46:34.115Z,11.74
2019-03-21T02:51:36.728Z,11.59
2019-03-21T02:56:39.434Z,11.62
2019-03-21T03:01:42.038Z,11.57
2019-03-21T03:06:44.771Z,11.53
2019-03-21T03:11:47.438Z,11.41
2019-03-21T03:16:50.089Z,11.39
2019-03-21T03:21:52.698Z,11.40
2019-03-21T03:27:01.427Z,11.17
2019-03-21T03:32:04.071Z,11.02
2019-03-21T03:37:06.757Z,10.88
2019-03-21T03:42:09.455Z,10.84
2019-03-21T03:47:12.024Z,10.70
2019-03-21T03:52:14.740Z,10.74
2019-03-21T03:57:17.383Z,10.64
2019-03-21T04:02:19.953Z,10.66
2019-03-21T04:08:10.860Z,10.48
2019-03-21T04:26:03.095Z,10.15
2019-03-21T04:31:08.472Z,9.94
2019-03-21T04:36:20.161Z,9.86
2019-03-21T04:41:29.848Z,9.88
2019-03-21T04:46:32.573Z,9.78
2019-03-21T04:51:35.223Z,9.64
2019-03-21T04:56:37.828Z,9.54
2019-03-21T05:01:40.503Z,9.57
2019-03-21T05:06:43.214Z,9.54
2019-03-21T05:11:56.739Z,9.49
2019-03-21T05:16:59.353Z,9.35
2019-03-21T05:22:03.499Z,9.47
2019-03-21T05:27:06.205Z,9.47
2019-03-21T05:32:08.813Z,9.42
2019-03-21T05:37:11.473Z,9.38
2019-03-21T05:42:17.689Z,9.45
2019-03-21T05:47:20.320Z,9.50
2019-03-21T05:52:26.823Z,9.52
2019-03-21T05:57:31.767Z,9.56
2019-03-21T06:02:34.438Z,9.56
2019-03-21T06:07:47.173Z,9.61
2019-03-21T06:12:49.864Z,9.67
2019-03-21T06:18:31.321Z,9.74
2019-03-21T06:24:03.049Z,9.80
2019-03-21T06:29:05.763Z,9.90
2019-03-21T06:34:08.451Z,10.05
2019-03-21T06:39:12.696Z,10.28
2019-03-21T06:44:17.202Z,11.05
2019-03-21T06:49:19.705Z,11.50
2019-03-21T06:54:22.310Z,12.02
2019-03-21T06:59:24.977Z,12.49
2019-03-21T07:04:27.635Z,13.02
2019-03-21T07:09:30.249Z,13.53
2019-03-21T07:14:32.930Z,14.03
2019-03-21T07:19:35.625Z,14.47
2019-03-21T07:24:38.223Z,14.94
2019-03-21T07:29:40.798Z,15.37
2019-03-21T07:34:43.546Z,15.87
2019-03-21T07:39:46.194Z,16.04
2019-03-21T07:44:49.018Z,16.36
2019-03-21T07:49:51.611Z,16.86
2019-03-21T07:54:54.353Z,17.16
2019-03-21T07:59:56.989Z,17.57
2019-03-21T08:04:59.634Z,17.73
2019-03-21T08:10:02.280Z,18.25
2019-03-21T08:15:05.993Z,18.50
2019-03-21T08:20:12.085Z,18.66
2019-03-21T08:25:14.982Z,19.08
2019-03-21T08:30:31.681Z,19.26
2019-03-21T08:35:35.643Z,19.45
2019-03-21T08:40:38.268Z,19.74
2019-03-21T08:45:40.939Z,19.73
2019-03-21T08:50:43.548Z,19.62
2019-03-21T08:55:46.127Z,19.81
2019-03-21T09:00:54.074Z,19.87
2019-03-21T09:06:03.705Z,20.03
2019-03-21T09:11:08.176Z,20.02
2019-03-21T09:16:11.101Z,20.08
2019-03-21T09:21:19.506Z,20.23
2019-03-21T09:26:18.382Z,20.59
2019-03-21T09:31:20.995Z,20.62
2019-03-21T09:36:23.676Z,20.85
2019-03-21T09:41:26.368Z,20.97
2019-03-21T09:46:29.949Z,20.98
2019-03-21T09:51:32.625Z,20.92
2019-03-21T09:56:35.332Z,20.97
2019-03-21T10:01:41.466Z,20.89
2019-03-21T10:06:47.866Z,20.76
2019-03-21T10:11:53.364Z,20.90
2019-03-21T10:16:56.105Z,21.00
2019-03-21T10:21:59.007Z,20.95
2019-03-21T10:27:04.279Z,20.50
2019-03-21T10:32:14.246Z,20.34
2019-03-21T10:37:13.393Z,20.43
2019-03-21T10:42:23.186Z,20.33
2019-03-21T10:47:30.816Z,20.18
2019-03-21T10:52:44.240Z,20.15
2019-03-21T10:58:03.878Z,20.06
2019-03-21T11:03:07.720Z,20.05
2019-03-21T11:08:10.457Z,19.93
2019-03-21T11:13:15.771Z,20.03
2019-03-21T11:18:18.385Z,20.18
2019-03-21T11:23:32.440Z,20.13
2019-03-21T11:28:35.061Z,20.00
2019-03-21T11:33:37.783Z,19.93
2019-03-21T11:38:40.507Z,19.93
2019-03-21T11:43:43.089Z,19.71
2019-03-21T11:48:45.678Z,19.92
2019-03-21T11:53:55.346Z,19.86
2019-03-21T11:58:59.918Z,20.05
2019-03-21T12:04:02.539Z,19.95
2019-03-21T12:09:06.499Z,19.77
2019-03-21T12:14:09.285Z,19.80
2019-03-21T12:19:11.960Z,19.95
2019-03-21T12:24:14.407Z,19.87
2019-03-21T12:29:17.006Z,19.93
2019-03-21T12:34:21.910Z,19.89
2019-03-21T12:39:29.010Z,20.00
2019-03-21T12:44:32.587Z,19.82
2019-03-21T12:49:35.452Z,19.83
2019-03-21T12:54:38.204Z,19.69
2019-03-21T12:59:42.589Z,19.53
2019-03-21T13:04:45.764Z,19.50
2019-03-21T13:09:50.234Z,19.64
2019-03-21T13:14:58.967Z,19.69
2019-03-21T13:20:05.169Z,19.52
2019-03-21T13:25:08.552Z,19.51
2019-03-21T13:30:11.802Z,19.44
2019-03-21T13:35:14.393Z,19.56
2019-03-21T13:40:17.124Z,19.34
2019-03-21T13:45:19.707Z,19.44
2019-03-21T13:50:30.379Z,19.45
2019-03-21T13:55:38.594Z,19.43
2019-03-21T14:00:44.470Z,19.36
2019-03-21T14:05:52.118Z,19.33
2019-03-21T14:11:04.083Z,19.30
2019-03-21T14:16:13.076Z,19.12
2019-03-21T14:21:24.957Z,19.09
2019-03-21T14:26:28.054Z,18.98
2019-03-21T14:31:45.437Z,18.90
2019-03-21T14:36:48.032Z,18.71
2019-03-21T14:41:50.697Z,18.64
2019-03-21T14:46:57.224Z,18.71
2019-03-21T14:52:02.716Z,18.77
2019-03-21T14:57:05.313Z,18.76
2019-03-21T15:02:07.931Z,18.77
2019-03-21T15:07:13.490Z,18.72
2019-03-21T15:12:16.579Z,18.72
2019-03-21T15:17:25.813Z,18.58
2019-03-21T15:22:28.489Z,18.52
2019-03-21T15:27:36.047Z,18.49
2019-03-21T15:32:56.258Z,18.49
2019-03-21T15:38:01.184Z,18.51
2019-03-21T15:43:03.917Z,18.49
2019-03-21T15:48:06.545Z,18.35
2019-03-21T15:53:14.392Z,18.30
2019-03-21T15:58:19.822Z,18.34
2019-03-21T16:03:27.807Z,18.32
2019-03-21T16:08:32.521Z,18.25
2019-03-21T16:13:36.110Z,18.15
2019-03-21T16:18:38.845Z,18.14
2019-03-21T16:23:45.438Z,18.08
2019-03-21T16:28:48.206Z,18.05
2019-03-21T16:33:50.897Z,17.90
2019-03-21T16:38:53.497Z,17.90
2019-03-21T16:43:57.904Z,17.85
2019-03-21T16:49:00.512Z,17.79
2019-03-21T16:54:03.127Z,17.69
2019-03-21T16:59:10.357Z,17.63
2019-03-21T17:04:14.088Z,17.59
2019-03-21T17:09:16.818Z,17.51
2019-03-21T17:14:19.426Z,17.47
2019-03-21T17:19:22.114Z,17.38
2019-03-21T17:24:29.681Z,17.27
2019-03-21T17:29:31.773Z,17.19
2019-03-21T17:34:34.473Z,17.09
2019-03-21T17:39:39.845Z,17.00
2019-03-21T17:44:43.295Z,16.90
2019-03-21T17:49:45.928Z,16.80
2019-03-21T17:54:48.535Z,16.72
2019-03-21T17:59:51.200Z,16.59
2019-03-21T18:04:56.690Z,16.46
2019-03-21T18:09:59.187Z,16.38
2019-03-21T18:15:01.883Z,16.29
2019-03-21T18:20:05.191Z,16.19
2019-03-21T18:25:07.845Z,16.11
2019-03-21T18:30:10.777Z,16.03
2019-03-21T18:35:14.771Z,15.95
2019-03-21T18:40:17.442Z,15.87
2019-03-21T18:45:20.112Z,15.76
2019-03-21T18:50:24.030Z,15.68
2019-03-21T18:55:26.667Z,15.59
2019-03-21T19:00:29.239Z,15.51
2019-03-21T19:05:33.471Z,15.46
2019-03-21T19:10:36.428Z,15.40
2019-03-21T19:15:39.342Z,15.32
2019-03-21T19:20:41.975Z,15.24
2019-03-21T19:25:44.572Z,15.19
2019-03-21T19:30:47.327Z,15.11
2019-03-21T19:35:49.996Z,15.05
2019-03-21T19:40:52.614Z,15.01
2019-03-21T19:45:55.268Z,14.95
2019-03-21T19:50:57.972Z,14.87
2019-03-21T19:56:08.392Z,14.81
2019-03-21T20:01:05.110Z,14.75
2019-03-21T20:06:07.745Z,14.70
2019-03-21T20:11:10.442Z,14.62
2019-03-21T20:16:14.896Z,14.57
2019-03-21T20:21:17.597Z,14.48
2019-03-21T20:26:20.193Z,14.43
2019-03-21T20:31:22.808Z,14.36
2019-03-21T20:36:25.431Z,14.30
2019-03-21T20:41:28.093Z,14.25
2019-03-21T20:46:30.690Z,14.19
2019-03-21T20:51:33.450Z,14.15
2019-03-21T20:56:36.147Z,14.08
2019-03-21T21:01:41.120Z,14.04
2019-03-21T21:06:43.695Z,13.97
2019-03-21T21:11:52.176Z,13.90
2019-03-21T21:16:54.843Z,13.84
2019-03-21T21:21:57.774Z,13.79
2019-03-21T21:27:00.502Z,13.71
2019-03-21T21:32:03.211Z,13.65
2019-03-21T21:37:08.774Z,13.61
2019-03-21T21:42:13.613Z,13.58
2019-03-21T21:47:21.892Z,13.53
2019-03-21T21:52:26.377Z,13.49
2019-03-21T21:57:31.865Z,13.44
2019-03-21T22:02:34.575Z,13.40
2019-03-21T22:07:37.366Z,13.37
2019-03-21T22:12:40.141Z,13.34
2019-03-21T22:17:42.824Z,13.28
2019-03-21T22:22:48.938Z,13.24
2019-03-21T22:27:58.678Z,13.17
2019-03-21T22:33:01.580Z,13.13
2019-03-21T22:38:04.141Z,13.09
2019-03-21T22:43:06.832Z,13.04
2019-03-21T22:48:09.823Z,12.99
2019-03-21T22:53:12.484Z,12.96
2019-03-21T22:58:31.437Z,12.95
2019-03-21T23:03:25.174Z,12.93
2019-03-21T23:08:33.234Z,12.88
2019-03-21T23:13:46.901Z,12.83
2019-03-21T23:18:57.128Z,12.78
2019-03-21T23:23:59.823Z,12.74
2019-03-21T23:29:03.914Z,12.69
2019-03-21T23:34:06.687Z,12.65
2019-03-21T23:39:09.278Z,12.61
2019-03-21T23:44:12.018Z,12.58
2019-03-21T23:49:19.363Z,12.59
2019-03-21T23:54:22.308Z,12.55
2019-03-21T23:59:27.063Z,12.53
